Time;durP1;ratioP1;P1;durP2;ratioP2;P2;SDS_P1;SDS_P2;PMS_P1;PMS_P2;Temp;Humidity;BMP_temperature;BMP_pressure;BME280_temperature;BME280_humidity;BME280_pressure;Samples;Min_cycle;Max_cycle;Signal;HPM_P1;HPM_P2
2023/12/10 01:15:29;;;;;;;;;4.50;2.00;;;;;8.92;83.71;100747.38;5071741;27;46004;-72
2023/12/10 01:18:02;;;;;;;;;2.75;2.00;;;;;9.01;83.98;100755.31;5075073;27;45410;-74
2023/12/10 01:20:33;;;;;;;;;4.50;2.00;;;;;8.98;83.57;100715.22;5075940;28;45349;-73
2023/12/10 01:23:00;;;;;;;;;2.50;1.50;;;;;9.24;82.41;100736.34;5072496;28;45641;-74
2023/12/10 01:25:29;;;;;;;;;7.50;2.75;;;;;9.52;81.95;100766.16;5071963;28;48178;-73
2023/12/10 01:27:55;;;;;;;;;3.75;1.00;;;;;9.34;80.30;100707.66;5075062;28;45425;-73
2023/12/10 01:30:24;;;;;;;;;8.00;2.00;;;;;9.86;80.24;100777.69;5075319;27;45346;-75
2023/12/10 01:32:51;;;;;;;;;3.67;2.00;;;;;9.95;79.99;100779.50;5075253;28;45460;-74
2023/12/10 01:35:44;;;;;;;;;4.67;2.00;;;;;10.05;79.25;100788.25;5073446;28;45420;-74
2023/12/10 01:38:28;;;;;;;;;5.00;5.00;;;;;10.02;78.94;100775.19;5070663;28;45378;-73
2023/12/10 01:40:56;;;;;;;;;5.67;2.00;;;;;10.18;77.98;100800.56;5074002;28;45489;-74
2023/12/10 01:43:29;;;;;;;;;4.67;4.67;;;;;10.25;77.57;100806.66;5090173;27;45380;-73
2023/12/10 01:45:55;;;;;;;;;8.33;4.00;;;;;9.74;77.84;100709.63;5073105;28;46372;-74
2023/12/10 01:48:23;;;;;;;;;4.33;2.00;;;;;10.13;77.09;100768.22;5071870;28;45553;-73
2023/12/10 01:50:49;;;;;;;;;3.00;1.33;;;;;10.34;76.87;100797.13;5074652;28;45452;-74
2023/12/10 01:53:16;;;;;;;;;7.33;2.00;;;;;10.39;76.87;100802.41;5073445;28;45457;-73
2023/12/10 01:55:42;;;;;;;;;2.00;1.33;;;;;10.32;76.95;100783.19;5073665;28;46221;-75
2023/12/10 01:58:12;;;;;;;;;6.00;2.00;;;;;10.40;76.35;100806.78;5071872;28;45489;-74
2023/12/10 02:00:38;;;;;;;;;4.33;2.00;;;;;10.40;76.18;100809.41;5073361;28;45535;-73
2023/12/10 02:03:08;;;;;;;;;2.00;1.00;;;;;10.31;76.27;100798.88;5073678;28;45386;-72
2023/12/10 02:05:44;;;;;;;;;3.67;1.67;;;;;10.40;76.83;100799.78;5073595;28;45713;-72
2023/12/10 02:08:10;;;;;;;;;3.67;1.33;;;;;10.14;76.25;100755.16;5069645;28;45496;-73
2023/12/10 02:10:35;;;;;;;;;6.00;3.00;;;;;10.19;76.79;100756.03;5074489;28;45460;-72
2023/12/10 02:13:03;;;;;;;;;2.33;2.33;;;;;10.39;76.54;100807.63;5074264;28;45423;-73
2023/12/10 02:15:28;;;;;;;;;3.67;2.00;;;;;10.38;76.18;100803.28;5072615;28;46482;-73
2023/12/10 02:17:55;;;;;;;;;5.00;1.33;;;;;10.34;76.68;100798.88;5073085;28;45546;-74
2023/12/10 02:20:22;;;;;;;;;4.67;2.00;;;;;10.30;76.37;100811.09;5073607;28;45555;-73
2023/12/10 02:23:09;;;;;;;;;7.00;1.33;;;;;10.36;76.31;100813.72;5073260;27;45391;-73
2023/12/10 02:25:44;;;;;;;;;3.00;1.33;;;;;10.03;76.51;100764.69;5065326;28;47150;-71
2023/12/10 02:28:11;;;;;;;;;0.67;0.33;;;;;10.03;75.79;100761.22;5059972;28;45508;-75
2023/12/10 02:30:36;;;;;;;;;2.33;1.00;;;;;10.10;75.78;100782.19;5058974;28;45443;-73
2023/12/10 02:33:03;;;;;;;;;5.33;2.00;;;;;10.36;75.78;100823.34;5059952;28;45546;-74
2023/12/10 02:35:28;;;;;;;;;4.33;2.67;;;;;10.11;75.88;100781.31;5058617;28;45525;-71
2023/12/10 02:37:55;;;;;;;;;4.67;3.00;;;;;10.36;76.14;100831.19;5058722;28;45448;-73
2023/12/10 02:40:21;;;;;;;;;4.00;1.00;;;;;9.77;75.69;100726.22;5062074;28;45420;-74
2023/12/10 02:42:47;;;;;;;;;5.67;3.00;;;;;9.76;75.76;100748.00;5063051;28;45441;-75
2023/12/10 02:45:14;;;;;;;;;4.67;3.00;;;;;10.28;75.74;100825.03;5061417;28;45683;-70
2023/12/10 02:47:40;;;;;;;;;3.00;1.00;;;;;10.35;75.67;100846.03;5060211;28;45343;-69
2023/12/10 02:50:07;;;;;;;;;1.67;1.00;;;;;10.35;75.66;100843.41;5059456;28;45235;-73
2023/12/10 02:52:37;;;;;;;;;8.00;3.00;;;;;10.35;76.05;100850.41;5058743;28;45249;-73
2023/12/10 02:55:04;;;;;;;;;4.33;2.00;;;;;10.35;75.85;100843.41;5058694;28;45463;-73
2023/12/10 02:57:34;;;;;;;;;5.67;1.00;;;;;10.32;75.61;100827.72;5057674;28;45488;-74
2023/12/10 02:59:59;;;;;;;;;1.00;0.67;;;;;10.37;75.40;100844.31;5059478;28;45584;-72
2023/12/10 03:02:25;;;;;;;;;5.67;1.00;;;;;9.87;75.74;100773.34;5058839;28;45786;-74
2023/12/10 03:04:51;;;;;;;;;1.33;1.33;;;;;10.10;75.94;100807.47;5059469;28;45409;-71
2023/12/10 03:07:19;;;;;;;;;6.33;3.67;;;;;10.30;75.47;100841.66;5059889;28;45338;-72
2023/12/10 03:09:45;;;;;;;;;4.33;2.33;;;;;10.30;75.73;100863.47;5060124;28;45508;-73
2023/12/10 03:12:11;;;;;;;;;4.67;2.67;;;;;10.41;75.37;100873.97;5060272;28;45610;-73
2023/12/10 03:14:37;;;;;;;;;4.33;2.33;;;;;10.43;75.96;100894.94;5059636;28;45405;-70
2023/12/10 03:17:02;;;;;;;;;3.67;3.00;;;;;10.45;75.32;100891.47;5060142;28;45491;-72
2023/12/10 03:19:28;;;;;;;;;7.00;2.67;;;;;10.07;75.23;100820.56;5059998;28;45397;-71
2023/12/10 03:21:54;;;;;;;;;3.33;1.67;;;;;10.09;75.58;100819.69;5060155;28;45663;-74
2023/12/10 03:24:20;;;;;;;;;5.67;2.67;;;;;9.62;75.62;100769.72;5063053;28;45489;-74
2023/12/10 03:26:45;;;;;;;;;8.00;2.67;;;;;10.48;75.42;100893.22;5069657;28;45332;-72
2023/12/10 03:29:14;;;;;;;;;3.33;1.67;;;;;10.37;75.65;100887.94;5064042;28;45333;-75
2023/12/10 03:31:41;;;;;;;;;8.33;1.00;;;;;10.48;75.47;100911.56;5062371;27;45432;-73
2023/12/10 03:34:06;;;;;;;;;10.67;3.00;;;;;10.50;75.59;100909.81;5059362;28;46193;-72
2023/12/10 03:36:32;;;;;;;;;9.33;3.00;;;;;10.33;76.03;100891.41;5057975;28;45488;-73
2023/12/10 03:38:58;;;;;;;;;4.67;2.67;;;;;10.48;75.57;100924.66;5057945;28;45532;-72
2023/12/10 03:41:23;;;;;;;;;2.00;2.00;;;;;10.42;76.04;100921.97;5059946;28;45345;-71
2023/12/10 03:43:56;;;;;;;;;4.67;2.33;;;;;10.44;76.25;100923.78;5058632;28;45611;-76
2023/12/10 03:46:21;;;;;;;;;6.00;3.00;;;;;10.34;75.83;100921.94;5058259;28;45484;-70
2023/12/10 03:48:48;;;;;;;;;2.00;2.00;;;;;10.39;76.26;100939.44;5058181;28;45399;-72
2023/12/10 03:51:14;;;;;;;;;2.00;1.00;;;;;10.49;76.27;100956.09;5058325;28;45408;-75
2023/12/10 03:53:39;;;;;;;;;3.00;2.00;;;;;10.43;75.96;100944.69;5056514;28;46551;-69
2023/12/10 03:56:13;;;;;;;;;4.67;1.00;;;;;10.29;76.00;100934.13;5056150;28;45298;-73
2023/12/10 03:58:49;;;;;;;;;4.00;2.67;;;;;10.50;76.07;100963.06;5058741;28;45368;-71
2023/12/10 04:01:16;;;;;;;;;7.00;2.00;;;;;10.39;76.04;100933.31;5058373;28;45470;-73
2023/12/10 04:03:42;;;;;;;;;1.00;1.00;;;;;10.36;76.55;100915.84;5058181;28;46237;-69
2023/12/10 04:06:08;;;;;;;;;2.00;2.00;;;;;10.15;75.93;100874.69;5058358;28;45357;-74
2023/12/10 04:08:46;;;;;;;;;3.67;1.00;;;;;10.47;75.90;100942.09;5058094;28;45386;-69
2023/12/10 04:11:22;;;;;;;;;4.00;1.33;;;;;10.31;76.50;100922.81;5059017;28;45596;-75
2023/12/10 04:13:48;;;;;;;;;5.67;3.00;;;;;9.70;75.92;100812.47;5058642;28;45558;-72
2023/12/10 04:16:23;;;;;;;;;5.00;1.33;;;;;9.82;76.36;100835.22;5058724;28;45504;-72
2023/12/10 04:18:49;;;;;;;;;4.33;2.00;;;;;10.10;76.37;100871.16;5057852;28;45500;-70
2023/12/10 04:21:17;;;;;;;;;3.67;2.00;;;;;10.18;76.59;100895.66;5058008;28;45390;-70
2023/12/10 04:23:43;;;;;;;;;8.00;2.67;;;;;10.24;76.75;100917.50;5057545;28;45450;-70
2023/12/10 04:26:08;;;;;;;;;5.00;3.00;;;;;10.38;76.31;100940.31;5057594;28;45476;-69
2023/12/10 04:28:34;;;;;;;;;2.33;1.33;;;;;10.37;76.88;100946.41;5059593;28;45417;-72
2023/12/10 04:30:59;;;;;;;;;2.33;1.00;;;;;10.28;76.65;100916.66;5059102;28;45460;-69
2023/12/10 04:33:25;;;;;;;;;4.33;1.00;;;;;10.35;77.17;100950.75;5060412;28;46108;-69
2023/12/10 04:35:50;;;;;;;;;6.00;2.00;;;;;10.31;76.94;100948.97;5061097;28;45452;-71
2023/12/10 04:38:16;;;;;;;;;5.33;2.33;;;;;10.27;76.93;100936.69;5059625;28;45594;-71
2023/12/10 04:40:43;;;;;;;;;11.33;3.00;;;;;10.32;77.28;100947.22;5061076;28;45600;-72
2023/12/10 04:43:09;;;;;;;;;6.67;2.00;;;;;10.30;77.33;100955.09;5058296;28;45541;-73
2023/12/10 04:45:34;;;;;;;;;4.67;2.00;;;;;10.03;76.92;100903.38;5056118;28;45397;-74
2023/12/10 04:48:01;;;;;;;;;3.00;1.33;;;;;10.13;77.05;100922.66;5056643;28;45429;-73
2023/12/10 04:50:26;;;;;;;;;2.67;2.00;;;;;10.23;76.84;100939.28;5057771;28;45468;-73
2023/12/10 04:52:52;;;;;;;;;5.67;1.00;;;;;9.97;77.08;100885.03;5056365;28;45590;-73
2023/12/10 04:55:18;;;;;;;;;2.67;1.00;;;;;10.17;77.53;100940.13;5057149;28;45368;-74
2023/12/10 04:57:43;;;;;;;;;6.00;3.00;;;;;10.21;77.30;100935.81;5055806;28;45422;-73
2023/12/10 05:00:09;;;;;;;;;6.00;3.33;;;;;10.20;77.17;100942.75;5057188;28;45406;-72
2023/12/10 05:02:35;;;;;;;;;2.33;1.33;;;;;10.23;77.22;100949.75;5056868;28;46060;-72
2023/12/10 05:05:00;;;;;;;;;2.00;1.33;;;;;10.18;77.06;100950.63;5056790;28;45331;-73
2023/12/10 05:07:27;;;;;;;;;3.00;1.00;;;;;10.16;76.93;100938.38;5057203;28;45306;-73
2023/12/10 05:09:54;;;;;;;;;3.00;1.33;;;;;10.28;77.06;100963.78;5057360;27;45477;-72
2023/12/10 05:12:20;;;;;;;;;6.67;2.00;;;;;9.73;76.87;100877.91;5057287;28;46204;-74
2023/12/10 05:14:45;;;;;;;;;4.00;2.33;;;;;10.33;76.89;100970.81;5056999;28;45400;-73
2023/12/10 05:17:11;;;;;;;;;8.00;2.00;;;;;9.80;76.41;100882.31;5057615;28;45404;-74
2023/12/10 05:19:37;;;;;;;;;5.67;2.67;;;;;10.38;76.50;100986.56;5056431;28;45382;-73
2023/12/10 05:22:03;;;;;;;;;5.00;2.67;;;;;10.10;76.46;100941.81;5056487;28;46589;-73
2023/12/10 05:24:29;;;;;;;;;2.00;2.00;;;;;10.34;76.28;100976.94;5055064;28;45490;-74
2023/12/10 05:26:55;;;;;;;;;8.00;3.00;;;;;10.19;76.52;100954.97;5056387;28;45635;-72
2023/12/10 05:29:22;;;;;;;;;4.00;2.67;;;;;10.26;76.46;100962.88;5056419;28;45460;-74
2023/12/10 05:31:48;;;;;;;;;4.33;2.00;;;;;10.25;76.17;100971.59;5056559;28;45661;-74
2023/12/10 05:34:14;;;;;;;;;7.33;3.00;;;;;10.12;76.80;100965.41;5059770;27;45655;-75
2023/12/10 05:36:42;;;;;;;;;4.00;3.00;;;;;10.24;76.69;100991.66;5058125;28;45610;-74
2023/12/10 05:39:08;;;;;;;;;5.00;2.00;;;;;10.25;76.95;100992.53;5058247;28;45468;-73
2023/12/10 05:41:34;;;;;;;;;3.00;1.00;;;;;10.25;77.07;101003.00;5056081;28;45267;-74
2023/12/10 05:44:00;;;;;;;;;3.67;1.33;;;;;10.30;76.65;101011.81;5054972;28;45302;-74
2023/12/10 05:46:25;;;;;;;;;4.67;2.00;;;;;10.27;76.66;101001.28;5056603;28;45381;-73
2023/12/10 05:48:51;;;;;;;;;2.67;1.33;;;;;10.31;76.69;101011.81;5056535;28;45556;-73
2023/12/10 05:51:21;;;;;;;;;12.67;3.00;;;;;10.29;76.55;100997.84;5055010;28;46860;-74
2023/12/10 05:53:46;;;;;;;;;2.00;2.00;;;;;10.15;77.06;100984.59;5057560;28;45527;-72
2023/12/10 05:56:12;;;;;;;;;9.00;3.67;;;;;9.79;76.69;100924.16;5057974;28;45270;-74
2023/12/10 05:58:37;;;;;;;;;5.00;2.33;;;;;9.85;76.77;100937.28;5058000;28;45441;-73
2023/12/10 06:01:03;;;;;;;;;9.33;3.00;;;;;10.11;76.97;100976.75;5057925;28;46270;-70
2023/12/10 06:03:29;;;;;;;;;5.00;3.00;;;;;10.28;76.80;101019.66;5060147;28;45420;-72
2023/12/10 06:05:54;;;;;;;;;2.67;2.00;;;;;10.28;76.75;101008.28;5059864;27;45492;-73
2023/12/10 06:08:20;;;;;;;;;4.00;2.33;;;;;10.18;76.68;101000.34;5059878;27;45543;-75
2023/12/10 06:10:45;;;;;;;;;4.33;2.00;;;;;10.26;77.05;101013.50;5059963;28;45447;-73
2023/12/10 06:13:11;;;;;;;;;6.33;1.33;;;;;10.28;77.15;101013.53;5059089;28;46108;-74
2023/12/10 06:15:37;;;;;;;;;2.67;1.00;;;;;10.15;76.77;100991.59;5060135;28;45317;-73
2023/12/10 06:18:02;;;;;;;;;9.33;2.00;;;;;10.26;76.40;101010.00;5060745;28;45363;-73
2023/12/10 06:20:28;;;;;;;;;1.67;1.67;;;;;10.30;76.68;101019.69;5059428;28;45463;-73
2023/12/10 06:23:00;;;;;;;;;7.00;0.33;;;;;10.12;76.66;100988.97;5059257;28;46011;-74
2023/12/10 06:25:28;;;;;;;;;3.67;3.00;;;;;10.25;77.19;101014.38;5075681;28;45370;-74
2023/12/10 06:27:56;;;;;;;;;6.33;2.00;;;;;10.05;76.93;100985.41;5058278;27;45520;-72
2023/12/10 06:30:23;;;;;;;;;7.00;2.00;;;;;10.14;76.45;100982.00;5057484;28;47094;-71
2023/12/10 06:32:49;;;;;;;;;7.00;4.00;;;;;9.68;76.65;100919.72;5058430;28;45324;-74
2023/12/10 06:35:14;;;;;;;;;7.67;3.00;;;;;10.29;76.67;101020.53;5058968;28;45465;-73
2023/12/10 06:37:41;;;;;;;;;3.33;1.67;;;;;10.27;76.25;101017.84;5059214;28;45535;-73
2023/12/10 06:40:08;;;;;;;;;5.00;2.00;;;;;10.08;76.71;101001.13;5059336;28;46110;-74
2023/12/10 06:42:34;;;;;;;;;11.33;2.33;;;;;10.15;76.68;101007.28;5061499;28;45428;-74
2023/12/10 06:45:01;;;;;;;;;7.67;1.00;;;;;10.11;76.93;101006.41;5064230;28;45335;-73
2023/12/10 06:47:27;;;;;;;;;6.67;2.33;;;;;10.18;77.25;101036.13;5076794;28;45294;-72
2023/12/10 06:49:56;;;;;;;;;5.00;3.00;;;;;10.19;77.00;101041.34;5072530;28;45709;-74
2023/12/10 06:52:22;;;;;;;;;2.67;2.00;;;;;10.22;77.09;101029.16;5060425;28;45650;-74
2023/12/10 06:54:48;;;;;;;;;3.33;2.33;;;;;9.77;77.23;100952.91;5058015;28;45464;-75
2023/12/10 06:57:13;;;;;;;;;4.67;2.00;;;;;9.84;77.53;100972.16;5060259;28;45556;-73
2023/12/10 06:59:40;;;;;;;;;6.33;2.00;;;;;10.19;76.95;101038.75;5057355;28;46655;-73
2023/12/10 07:02:06;;;;;;;;;6.67;2.33;;;;;9.91;77.00;100989.66;5058512;28;45486;-73
2023/12/10 07:04:31;;;;;;;;;4.33;2.00;;;;;10.21;77.37;101037.91;5058891;28;45477;-72
2023/12/10 07:06:57;;;;;;;;;5.33;2.67;;;;;10.16;77.05;101024.78;5059259;28;45444;-73
2023/12/10 07:09:23;;;;;;;;;6.00;1.67;;;;;10.20;77.30;101039.63;5058354;28;45982;-71
2023/12/10 07:11:49;;;;;;;;;4.00;2.00;;;;;10.13;77.14;101029.94;5058286;28;45465;-72
2023/12/10 07:14:15;;;;;;;;;6.67;2.33;;;;;10.23;77.79;101033.53;5058397;28;45385;-72
2023/12/10 07:16:41;;;;;;;;;2.33;2.00;;;;;10.23;77.34;101036.13;5058821;28;45558;-72
2023/12/10 07:19:06;;;;;;;;;4.33;3.00;;;;;10.25;77.21;101037.03;5057751;28;46486;-73
2023/12/10 07:21:32;;;;;;;;;6.33;2.33;;;;;10.25;77.45;101040.56;5059514;28;45430;-72
2023/12/10 07:23:57;;;;;;;;;4.33;3.00;;;;;10.23;77.23;101038.75;5058514;28;45685;-72
2023/12/10 07:26:25;;;;;;;;;4.67;3.00;;;;;10.22;77.35;101037.00;5059025;28;45468;-72
2023/12/10 07:28:51;;;;;;;;;7.33;3.67;;;;;10.23;77.18;101044.00;5056964;28;45477;-72
2023/12/10 07:31:19;;;;;;;;;4.67;3.00;;;;;10.15;77.21;101042.19;5058185;28;45855;-72
2023/12/10 07:33:45;;;;;;;;;5.67;4.00;;;;;10.21;77.47;101057.09;5058262;28;45374;-71
2023/12/10 07:36:15;;;;;;;;;4.00;2.33;;;;;10.17;77.30;101044.81;5058771;28;45333;-73
2023/12/10 07:38:41;;;;;;;;;4.67;3.67;;;;;10.25;76.85;101056.25;5058233;28;45715;-73
2023/12/10 07:41:07;;;;;;;;;5.67;0.00;;;;;10.02;77.57;101022.03;5059367;28;45600;-73
2023/12/10 07:43:33;;;;;;;;;2.67;2.00;;;;;10.00;77.29;100994.09;5058858;28;45365;-73
2023/12/10 07:45:59;;;;;;;;;8.75;3.25;;;;;10.28;77.32;101044.94;5058124;28;45475;-72
2023/12/10 07:48:24;;;;;;;;;9.00;3.00;;;;;10.26;77.91;101033.56;5058057;28;46203;-70
2023/12/10 07:50:50;;;;;;;;;3.00;2.00;;;;;10.15;77.25;101016.00;5058987;28;45457;-72
2023/12/10 07:53:16;;;;;;;;;8.00;3.33;;;;;10.39;76.92;101053.75;5059709;28;45341;-70
2023/12/10 07:55:43;;;;;;;;;3.00;2.00;;;;;10.37;77.42;101045.03;5058076;27;45539;-73
2023/12/10 07:58:08;;;;;;;;;5.00;2.00;;;;;10.37;77.74;101051.16;5058426;28;45596;-71
2023/12/10 08:00:47;;;;;;;;;3.00;3.00;;;;;10.15;77.39;101013.41;5057714;28;45515;-74
2023/12/10 08:03:13;;;;;;;;;8.33;3.67;;;;;10.18;77.47;101017.81;5059141;28;45528;-72
2023/12/10 08:05:39;;;;;;;;;12.75;4.75;;;;;10.43;77.66;101046.81;5059484;28;45271;-72
2023/12/10 08:08:05;;;;;;;;;6.00;3.00;;;;;10.35;77.35;101031.94;5057335;28;47693;-72
2023/12/10 08:10:32;;;;;;;;;6.67;3.00;;;;;10.13;77.18;100999.44;5059084;28;45370;-70
2023/12/10 08:12:58;;;;;;;;;8.33;6.33;;;;;10.35;77.77;101037.16;5074488;27;45326;-75
2023/12/10 08:15:25;;;;;;;;;8.67;4.00;;;;;9.43;77.63;100878.50;5059861;28;45535;-76
2023/12/10 08:17:52;;;;;;;;;5.33;3.00;;;;;10.33;77.78;101036.28;5059391;28;45702;-75
2023/12/10 08:20:18;;;;;;;;;7.00;2.67;;;;;10.21;77.59;100996.00;5057903;28;45490;-73
2023/12/10 08:22:43;;;;;;;;;5.33;2.67;;;;;10.11;77.57;100989.84;5058246;28;45442;-72
2023/12/10 08:25:10;;;;;;;;;3.67;2.00;;;;;10.17;77.47;101003.81;5058794;28;45470;-72
2023/12/10 08:27:36;;;;;;;;;4.00;2.33;;;;;10.35;77.50;101020.59;5059036;28;45423;-75
2023/12/10 08:30:02;;;;;;;;;9.00;5.00;;;;;10.24;77.08;101009.13;5060767;28;45401;-74
2023/12/10 08:32:29;;;;;;;;;3.67;1.00;;;;;10.20;77.86;101013.44;5059217;28;45528;-70
2023/12/10 08:34:54;;;;;;;;;7.33;4.00;;;;;9.96;78.40;100991.44;5056753;28;45592;-72
2023/12/10 08:37:20;;;;;;;;;3.33;3.00;;;;;10.35;78.11;101036.28;5058400;28;45490;-73
2023/12/10 08:39:48;;;;;;;;;4.33;4.00;;;;;9.76;77.74;100961.63;5057676;28;45273;-72
2023/12/10 08:42:14;;;;;;;;;5.33;3.00;;;;;10.21;77.85;101024.81;5057627;28;45442;-73
2023/12/10 08:44:39;;;;;;;;;7.33;4.00;;;;;10.34;78.17;101030.16;5056521;28;45647;-73
2023/12/10 08:47:05;;;;;;;;;4.33;2.33;;;;;9.85;78.00;100953.00;5057545;28;46011;-75
2023/12/10 08:49:37;;;;;;;;;5.67;3.00;;;;;10.30;78.41;101041.50;5056005;28;45500;-74
2023/12/10 08:52:03;;;;;;;;;4.33;3.00;;;;;10.22;78.57;101024.78;5056218;28;45569;-74
2023/12/10 08:54:28;;;;;;;;;9.67;4.00;;;;;10.30;79.30;101031.03;5056060;28;45638;-68
2023/12/10 08:56:54;;;;;;;;;12.00;3.25;;;;;10.26;79.27;101033.56;5058007;28;45414;-72
2023/12/10 08:59:21;;;;;;;;;4.33;3.67;;;;;10.27;79.46;101023.09;5057151;28;45361;-74
2023/12/10 09:01:46;;;;;;;;;18.25;10.50;;;;;10.44;80.66;101025.00;5057765;28;45468;-71
2023/12/10 09:04:12;;;;;;;;;7.00;4.00;;;;;10.43;78.54;101015.41;5057116;28;45366;-72
2023/12/10 09:06:38;;;;;;;;;5.00;3.00;;;;;10.37;78.97;101004.03;5055861;28;45691;-72
2023/12/10 09:09:24;;;;;;;;;;;;;;;;;;;;;
2023/12/10 09:11:54;;;;;;;;;10.33;4.67;;;;;10.40;78.48;101008.41;5052694;28;68958;-74
2023/12/10 09:14:19;;;;;;;;;12.33;5.00;;;;;10.34;79.17;101013.59;5054448;28;45369;-72
2023/12/10 09:16:47;;;;;;;;;6.00;5.00;;;;;10.30;79.23;101006.59;5055014;28;46662;-72
2023/12/10 09:19:14;;;;;;;;;8.75;6.00;;;;;10.26;80.04;101008.25;5055569;28;45626;-73
2023/12/10 09:21:39;;;;;;;;;7.00;4.33;;;;;10.28;79.86;101008.28;5055429;28;45617;-71
2023/12/10 09:24:06;;;;;;;;;11.50;5.00;;;;;10.16;80.14;100981.13;5057051;28;45516;-75
2023/12/10 09:26:34;;;;;;;;;12.67;6.00;;;;;10.39;79.85;101002.28;5056589;28;45620;-75
2023/12/10 09:29:10;;;;;;;;;10.67;5.00;;;;;10.38;79.35;100976.09;5056451;28;45791;-73
2023/12/10 09:31:36;;;;;;;;;13.50;5.75;;;;;10.30;80.26;100951.63;5055314;28;46281;-70
2023/12/10 09:34:09;;;;;;;;;12.50;6.00;;;;;10.34;79.67;100956.84;5056040;28;45574;-72
2023/12/10 09:36:41;;;;;;;;;6.50;2.25;;;;;10.42;79.10;100954.31;5056625;28;45483;-74
2023/12/10 09:39:07;;;;;;;;;9.25;7.25;;;;;10.64;79.36;100955.28;5057598;28;45438;-71
2023/12/10 09:41:32;;;;;;;;;8.67;4.00;;;;;10.71;78.68;100961.44;5060532;28;45372;-72
2023/12/10 09:43:58;;;;;;;;;7.67;4.67;;;;;10.59;79.00;100946.53;5059241;28;45367;-74
2023/12/10 09:46:27;;;;;;;;;11.00;7.33;;;;;10.39;78.95;100899.28;5058210;28;45516;-71
2023/12/10 09:48:56;;;;;;;;;9.67;6.00;;;;;10.56;79.48;100957.88;5060045;28;45591;-72
2023/12/10 09:51:21;;;;;;;;;6.00;5.00;;;;;10.54;79.50;100964.84;5062117;28;45347;-72
2023/12/10 09:53:48;;;;;;;;;11.50;4.00;;;;;10.53;79.77;100955.22;5064137;28;45327;-76
2023/12/10 09:56:13;;;;;;;;;6.33;5.33;;;;;10.59;79.89;100962.25;5060076;28;47718;-72
2023/12/10 09:58:39;;;;;;;;;13.75;4.00;;;;;10.46;79.77;100927.25;5060816;28;45289;-71
2023/12/10 10:01:07;;;;;;;;;7.25;3.75;;;;;10.86;79.47;100952.78;5061521;28;45339;-72
2023/12/10 10:03:37;;;;;;;;;8.00;3.00;;;;;11.12;78.07;100952.88;5067211;28;45338;-71
2023/12/10 10:06:06;;;;;;;;;10.67;5.00;;;;;11.00;78.00;100944.09;5067900;28;45235;-72
2023/12/10 10:08:31;;;;;;;;;11.67;5.00;;;;;10.98;78.08;100948.44;5067007;28;45516;-71
2023/12/10 10:10:57;;;;;;;;;8.25;4.50;;;;;10.73;78.21;100917.78;5063087;28;45521;-73
2023/12/10 10:13:35;;;;;;;;;7.00;4.00;;;;;10.67;78.41;100934.34;5060845;28;45536;-74
2023/12/10 10:16:12;;;;;;;;;5.75;4.50;;;;;10.53;78.57;100900.22;5058743;28;47839;-74
2023/12/10 10:18:41;;;;;;;;;7.67;4.00;;;;;10.64;79.38;100907.28;5059120;28;45506;-73
2023/12/10 10:21:07;;;;;;;;;11.67;4.00;;;;;10.58;79.03;100895.00;5059572;28;45296;-70
2023/12/10 10:23:36;;;;;;;;;4.67;3.67;;;;;10.68;78.98;100903.78;5058920;28;45295;-72
2023/12/10 10:26:10;;;;;;;;;7.75;5.25;;;;;10.25;78.93;100825.00;5058846;28;45332;-72
2023/12/10 10:28:37;;;;;;;;;5.00;4.00;;;;;10.74;78.95;100878.47;5058631;28;45573;-73
2023/12/10 10:31:37;;;;;;;;;8.67;5.33;;;;;10.97;78.33;100894.28;5057528;28;45482;-74
2023/12/10 10:34:04;;;;;;;;;9.67;5.33;;;;;10.87;77.76;100884.66;5058720;28;45695;-72
2023/12/10 10:36:31;;;;;;;;;7.00;4.00;;;;;11.01;77.67;100895.19;5061485;28;45472;-74
2023/12/10 10:38:57;;;;;;;;;6.00;4.33;;;;;11.09;76.88;100885.59;5064400;28;45250;-72
2023/12/10 10:41:24;;;;;;;;;9.67;3.33;;;;;11.19;77.10;100894.34;5060642;28;45378;-73
2023/12/10 10:43:51;;;;;;;;;6.00;4.00;;;;;10.54;76.30;100765.81;5060877;28;45357;-74
2023/12/10 10:46:21;;;;;;;;;11.67;6.33;;;;;11.03;75.38;100823.56;5059980;28;45673;-73
2023/12/10 10:48:51;;;;;;;;;7.67;3.33;;;;;11.37;75.70;100827.94;5060309;28;45466;-73
2023/12/10 10:51:29;;;;;;;;;5.33;3.00;;;;;11.83;74.43;100841.88;5059081;28;45592;-71
2023/12/10 10:53:58;;;;;;;;;5.67;3.67;;;;;12.16;72.63;100813.84;5058436;28;45530;-74
2023/12/10 10:56:26;;;;;;;;;10.33;5.00;;;;;12.00;70.43;100741.28;5060720;28;46270;-72
2023/12/10 10:58:52;;;;;;;;;5.00;3.00;;;;;12.49;69.32;100741.91;5075376;27;45507;-75
2023/12/10 11:01:39;;;;;;;;;3.00;1.00;;;;;13.58;66.89;100824.41;5059403;28;45415;-73
2023/12/10 11:04:05;;;;;;;;;6.00;2.00;;;;;13.40;65.30;100733.34;5058453;28;45591;-69
2023/12/10 11:06:30;;;;;;;;;4.00;2.33;;;;;14.03;64.65;100810.81;5074908;27;45581;-74
2023/12/10 11:08:59;;;;;;;;;5.00;4.00;;;;;14.24;64.19;100802.66;5059008;28;45346;-73
2023/12/10 11:11:26;;;;;;;;;8.33;2.67;;;;;14.80;62.61;100794.91;5062092;28;45469;-73
2023/12/10 11:13:53;;;;;;;;;2.00;2.00;;;;;14.89;62.04;100770.19;5060255;28;45409;-73
2023/12/10 11:16:22;;;;;;;;;5.00;2.67;;;;;14.95;61.59;100778.00;5054566;28;46373;-74
2023/12/10 11:18:51;;;;;;;;;4.00;2.33;;;;;14.88;61.64;100794.81;5058216;28;45546;-73
2023/12/10 11:21:17;;;;;;;;;8.67;4.00;;;;;14.61;61.16;100760.91;5059264;28;46240;-70
2023/12/10 11:23:49;;;;;;;;;5.67;4.67;;;;;14.14;62.02;100732.53;5061361;28;45409;-71
2023/12/10 11:26:15;;;;;;;;;4.67;2.67;;;;;14.20;62.18;100782.50;5061207;28;46177;-71
2023/12/10 11:28:42;;;;;;;;;6.00;4.33;;;;;13.94;62.29;100741.56;5059541;28;45433;-70
2023/12/10 11:31:09;;;;;;;;;4.33;3.00;;;;;13.62;62.92;100734.03;5058385;28;45516;-73
2023/12/10 11:33:40;;;;;;;;;9.33;4.67;;;;;13.21;63.58;100680.03;5060070;28;45306;-72
2023/12/10 11:36:07;;;;;;;;;7.33;2.00;;;;;13.52;63.90;100748.16;5058894;28;46474;-72
2023/12/10 11:38:33;;;;;;;;;5.67;2.67;;;;;13.21;64.60;100731.75;5058313;28;45638;-72
2023/12/10 11:40:59;;;;;;;;;8.00;3.00;;;;;12.94;65.34;100716.19;5057453;28;45530;-69
2023/12/10 11:43:26;;;;;;;;;7.00;4.00;;;;;12.89;65.27;100693.47;5059684;28;45341;-74
2023/12/10 11:45:54;;;;;;;;;5.00;3.33;;;;;12.98;65.65;100724.94;5057529;28;45458;-72
2023/12/10 11:48:20;;;;;;;;;7.67;3.00;;;;;13.03;65.93;100723.16;5056439;28;45358;-72
2023/12/10 11:50:47;;;;;;;;;7.00;4.00;;;;;12.86;66.17;100706.63;5058186;28;45218;-75
2023/12/10 11:53:16;;;;;;;;;4.00;3.00;;;;;12.74;66.41;100691.81;5057588;28;45628;-72
2023/12/10 11:55:48;;;;;;;;;7.00;4.00;;;;;12.48;66.44;100655.22;5057777;28;46164;-74
2023/12/10 11:58:14;;;;;;;;;11.67;4.33;;;;;12.63;67.43;100697.16;5057749;27;45225;-74
2023/12/10 12:00:58;;;;;;;;;6.33;3.67;;;;;12.50;67.77;100685.88;5058339;28;45630;-73
2023/12/10 12:03:24;;;;;;;;;9.00;4.00;;;;;12.19;68.64;100644.91;5057921;28;45501;-75
2023/12/10 12:05:53;;;;;;;;;5.33;4.00;;;;;12.34;69.01;100684.22;5058330;28;45780;-73
2023/12/10 12:08:28;;;;;;;;;12.33;4.67;;;;;12.07;69.54;100637.97;5058267;28;45438;-71
2023/12/10 12:10:57;;;;;;;;;8.00;4.00;;;;;11.97;70.10;100652.06;5062702;28;45466;-73
2023/12/10 12:13:23;;;;;;;;;6.00;4.00;;;;;11.45;70.37;100564.78;5059832;28;45338;-70
2023/12/10 12:15:50;;;;;;;;;6.67;2.67;;;;;12.03;71.12;100662.50;5060553;28;46155;-76
2023/12/10 12:18:16;;;;;;;;;9.33;3.00;;;;;11.98;71.23;100643.28;5041636;28;45482;-76
2023/12/10 12:20:44;;;;;;;;;9.33;4.00;;;;;11.90;71.43;100621.47;5058692;28;45521;-77
2023/12/10 12:23:10;;;;;;;;;4.33;3.00;;;;;12.04;71.06;100672.13;5061254;28;45532;-75
2023/12/10 12:25:38;;;;;;;;;9.33;3.00;;;;;11.69;71.79;100612.78;5058809;28;46726;-75
2023/12/10 12:28:07;;;;;;;;;7.67;4.67;;;;;11.99;71.81;100659.03;5059070;28;45410;-83
2023/12/10 12:30:37;;;;;;;;;12.00;3.67;;;;;11.93;72.53;100634.56;5064228;28;45192;-86
2023/12/10 12:33:04;;;;;;;;;10.33;3.00;;;;;11.79;72.85;100625.00;5067527;28;45453;-85
2023/12/10 12:35:30;;;;;;;;;4.67;4.00;;;;;11.90;72.59;100651.19;5062618;28;45496;-72
2023/12/10 12:37:57;;;;;;;;;6.00;3.67;;;;;11.84;73.79;100638.06;5058771;28;45496;-77
2023/12/10 12:40:26;;;;;;;;;11.00;3.00;;;;;11.77;73.90;100594.38;5060176;28;45272;-77
2023/12/10 12:42:52;;;;;;;;;9.67;3.00;;;;;11.78;75.04;100588.25;5059921;27;45354;-75